Time;durP1;ratioP1;P1;durP2;ratioP2;P2;SDS_P1;SDS_P2;PMS_P1;PMS_P2;Temp;Humidity;BMP_temperature;BMP_pressure;BME280_temperature;BME280_humidity;BME280_pressure;Samples;Min_cycle;Max_cycle;Signal;HPM_P1;HPM_P2
2022/01/01 09:30:15;;;;;;;;;26.33;18.00;;;;;;;;6296038;22;1307636;-73
2022/01/01 09:32:40;;;;;;;;;26.33;22.67;;;;;;;;6367850;22;45214;-78
2022/01/01 09:35:06;;;;;;;;;22.33;19.33;;;;;;;;6367609;22;46060;-73
2022/01/01 09:37:34;;;;;;;;;20.00;17.33;;;;;;;;6367616;22;45311;-72
2022/01/01 09:40:00;;;;;;;;;24.33;20.33;;;;;;;;6338921;22;45403;-72
2022/01/01 09:42:25;;;;;;;;;20.00;17.67;;;;;;;;6367090;22;45265;-75
2022/01/01 09:44:53;;;;;;;;;19.00;18.33;;;;;;;;6367639;22;45362;-75
2022/01/01 09:47:19;;;;;;;;;18.67;18.67;;;;;;;;6367902;22;44660;-79
2022/01/01 09:49:45;;;;;;;;;21.67;20.33;;;;;;;;6367704;22;45221;-73
2022/01/01 09:52:12;;;;;;;;;23.00;20.00;;;;;;;;6368460;22;45242;-74
2022/01/01 09:54:37;;;;;;;;;23.67;20.67;;;;;;;;6367803;22;46166;-75
2022/01/01 12:41:03;;;;;;;;;16.00;13.67;;;;;;;;5109664;27;45295;-72
2022/01/01 12:43:29;;;;;;;;;12.67;10.67;;;;;;;;5112777;27;45315;-72
2022/01/01 12:45:55;;;;;;;;;14.33;11.33;;;;;;;;5113230;27;45327;-72
2022/01/01 12:48:21;;;;;;;;;15.33;10.33;;;;;;;;5112910;27;45311;-73
2022/01/01 12:50:47;;;;;;;;;9.67;9.67;;;;;;;;5112663;27;45366;-73
2022/01/01 12:53:12;;;;;;;;;7.33;7.00;;;;;;;;5112313;27;45326;-73
2022/01/01 12:55:38;;;;;;;;;10.33;10.33;;;;;;;;5113145;27;45282;-73
2022/01/01 12:58:07;;;;;;;;;12.00;10.67;;;;;;;;5112951;27;45453;-73
2022/01/01 13:00:37;;;;;;;;;9.00;8.67;;;;;;;;5112284;27;46573;-73
2022/01/01 13:03:03;;;;;;;;;9.00;8.67;;;;;;;;5112478;27;45419;-74
2022/01/01 13:05:28;;;;;;;;;12.00;11.00;;;;;;;;5107888;27;45644;-73
2022/01/01 13:07:53;;;;;;;;;11.67;9.33;;;;;;;;5112557;27;45395;-72
2022/01/01 13:10:19;;;;;;;;;10.00;9.00;;;;;;;;5112566;27;45966;-72
2022/01/01 13:12:46;;;;;;;;;11.67;8.33;;;;;;;;5112755;27;45268;-74
2022/01/01 13:15:12;;;;;;;;;11.33;9.67;;;;;;;;5112320;27;45252;-72
2022/01/01 13:17:46;;;;;;;;;14.67;11.67;;;;;;;;5112457;27;45268;-71
2022/01/01 13:20:12;;;;;;;;;7.67;7.67;;;;;;;;5112047;27;45476;-73
2022/01/01 13:22:38;;;;;;;;;13.33;10.00;;;;;;;;5112278;27;45257;-73
2022/01/01 13:25:04;;;;;;;;;11.33;8.33;;;;;;;;5112583;27;45397;-73
2022/01/01 13:27:29;;;;;;;;;9.00;7.67;;;;;;;;5111990;27;45377;-72
2022/01/01 13:29:55;;;;;;;;;9.67;8.00;;;;;;;;5112024;27;45638;-73
2022/01/01 13:32:20;;;;;;;;;9.33;9.33;;;;;;;;5112189;27;45310;-73
2022/01/01 13:34:50;;;;;;;;;9.67;9.67;;;;;;;;5112450;27;45430;-73
2022/01/01 13:37:21;;;;;;;;;9.00;7.67;;;;;;;;5112063;27;45535;-72
2022/01/01 13:39:46;;;;;;;;;5.67;5.67;;;;;;;;5110171;27;46402;-72
2022/01/01 13:42:16;;;;;;;;;7.33;7.00;;;;;;;;5112108;27;45448;-73
2022/01/01 13:44:42;;;;;;;;;10.33;8.00;;;;;;;;5112026;27;45402;-72
2022/01/01 13:47:13;;;;;;;;;10.33;7.67;;;;;;;;5111687;27;45452;-72
2022/01/01 13:49:44;;;;;;;;;8.67;7.33;;;;;;;;5111268;27;46427;-73
2022/01/01 13:52:15;;;;;;;;;10.67;9.33;;;;;;;;5098944;27;45336;-73
2022/01/01 13:54:40;;;;;;;;;9.00;7.33;;;;;;;;5098477;27;45404;-75
2022/01/01 13:57:08;;;;;;;;;11.00;8.00;;;;;;;;5098236;27;45328;-74
2022/01/01 13:59:34;;;;;;;;;9.33;9.00;;;;;;;;5096069;27;47332;-73
2022/01/01 14:02:03;;;;;;;;;9.00;9.00;;;;;;;;5097085;27;45264;-75
2022/01/01 14:04:30;;;;;;;;;8.00;8.00;;;;;;;;5098111;27;45425;-74
2022/01/01 14:07:21;;;;;;;;;12.67;10.00;;;;;;;;5097956;27;45382;-73
2022/01/01 14:10:02;;;;;;;;;9.00;7.67;;;;;;;;5096334;27;45517;-74
2022/01/01 14:12:28;;;;;;;;;6.00;6.00;;;;;;;;5095993;27;45333;-73
2022/01/01 14:15:00;;;;;;;;;8.67;5.00;;;;;;;;5097796;27;45408;-74
2022/01/01 14:17:25;;;;;;;;;6.33;6.33;;;;;;;;5097733;27;45404;-73
2022/01/01 14:19:50;;;;;;;;;5.33;5.33;;;;;;;;5097407;27;46384;-74
2022/01/01 14:22:16;;;;;;;;;10.00;7.33;;;;;;;;5097690;27;45424;-73
2022/01/01 14:24:48;;;;;;;;;8.00;7.67;;;;;;;;5097587;27;45445;-74
2022/01/01 14:27:14;;;;;;;;;8.00;8.00;;;;;;;;5097565;27;45307;-74
2022/01/01 14:29:39;;;;;;;;;7.67;7.00;;;;;;;;5097585;27;46488;-74
2022/01/01 14:32:04;;;;;;;;;8.67;7.00;;;;;;;;5097712;27;45307;-74
2022/01/01 14:34:29;;;;;;;;;8.33;7.33;;;;;;;;5097623;27;45351;-74
2022/01/01 14:36:55;;;;;;;;;10.00;8.00;;;;;;;;5097685;27;45237;-74
2022/01/01 14:39:21;;;;;;;;;8.33;8.00;;;;;;;;5096681;27;45419;-74
2022/01/01 14:41:46;;;;;;;;;9.33;7.00;;;;;;;;5097399;27;45339;-74
2022/01/01 14:44:13;;;;;;;;;6.67;6.67;;;;;;;;5097420;27;45417;-76
2022/01/01 14:46:43;;;;;;;;;7.00;7.00;;;;;;;;5097247;27;45424;-76
2022/01/01 14:49:27;;;;;;;;;8.00;7.33;;;;;;;;5097200;27;45520;-75
2022/01/01 14:52:09;;;;;;;;;5.00;4.00;;;;;;;;5095672;27;45316;-75
2022/01/01 14:54:42;;;;;;;;;7.00;6.00;;;;;;;;5097314;27;45407;-75
2022/01/01 14:57:16;;;;;;;;;8.67;5.33;;;;;;;;5097118;27;45306;-74
2022/01/01 14:59:43;;;;;;;;;6.00;6.00;;;;;;;;5096807;27;45509;-74
2022/01/01 15:02:08;;;;;;;;;6.67;6.67;;;;;;;;5096342;27;45308;-74
2022/01/01 15:04:34;;;;;;;;;10.67;8.00;;;;;;;;5095501;27;45392;-74
2022/01/01 15:07:00;;;;;;;;;6.33;5.67;;;;;;;;5097364;27;45428;-73
2022/01/01 15:09:30;;;;;;;;;8.33;6.33;;;;;;;;5096896;27;46109;-73
2022/01/01 15:11:55;;;;;;;;;10.33;8.33;;;;;;;;5096763;27;45219;-73
2022/01/01 15:14:23;;;;;;;;;11.00;7.33;;;;;;;;5096952;27;45429;-73
2022/01/01 15:16:49;;;;;;;;;8.00;6.33;;;;;;;;5096819;27;45374;-74
2022/01/01 15:19:15;;;;;;;;;9.00;8.00;;;;;;;;5095054;27;47482;-74
2022/01/01 15:21:59;;;;;;;;;10.00;10.00;;;;;;;;5096606;27;45269;-74
2022/01/01 15:24:30;;;;;;;;;9.67;8.67;;;;;;;;5096765;27;45342;-74
2022/01/01 15:26:55;;;;;;;;;9.00;7.67;;;;;;;;5096786;27;45333;-74
2022/01/01 15:34:44;;;;;;;;;6.33;6.33;;;;;;;;5096441;27;45279;-73
2022/01/01 15:37:10;;;;;;;;;10.33;7.67;;;;;;;;5096587;27;45259;-79
2022/01/01 15:39:41;;;;;;;;;9.00;8.00;;;;;;;;5095930;27;45531;-78
2022/01/01 15:42:19;;;;;;;;;7.00;6.33;;;;;;;;5096577;27;45370;-80
2022/01/01 15:44:45;;;;;;;;;9.00;9.00;;;;;;;;5096401;27;45329;-75
2022/01/01 15:47:10;;;;;;;;;12.67;9.67;;;;;;;;5096161;27;45450;-76
2022/01/01 15:49:36;;;;;;;;;10.00;8.00;;;;;;;;5096228;27;45402;-78
2022/01/01 15:52:02;;;;;;;;;11.00;10.00;;;;;;;;5096245;27;45399;-80
2022/01/01 15:54:28;;;;;;;;;7.00;5.33;;;;;;;;5096591;27;45260;-74
2022/01/01 15:57:12;;;;;;;;;12.00;10.33;;;;;;;;5095897;27;45433;-74
2022/01/01 15:59:43;;;;;;;;;13.00;10.00;;;;;;;;5096117;27;45308;-74
2022/01/01 16:02:19;;;;;;;;;14.00;11.33;;;;;;;;5095827;27;45351;-74
2022/01/01 16:04:44;;;;;;;;;12.33;11.00;;;;;;;;5096264;27;45386;-74
2022/01/01 16:07:10;;;;;;;;;31.75;27.75;;;;;;;;5096184;27;45417;-74
2022/01/01 16:09:46;;;;;;;;;15.33;13.33;;;;;;;;5094621;27;46312;-74
2022/01/01 16:12:12;;;;;;;;;11.33;10.00;;;;;;;;5095684;27;45384;-74
2022/01/01 16:14:45;;;;;;;;;13.67;12.67;;;;;;;;5095732;27;45350;-75
2022/01/01 16:17:12;;;;;;;;;13.33;11.67;;;;;;;;5096168;27;45332;-77
2022/01/01 16:19:39;;;;;;;;;10.33;9.00;;;;;;;;5095500;27;46666;-75
2022/01/01 16:22:05;;;;;;;;;14.00;13.33;;;;;;;;5095732;27;45478;-75
2022/01/01 16:24:31;;;;;;;;;11.33;10.33;;;;;;;;5095722;27;45376;-75
2022/01/01 16:26:57;;;;;;;;;11.33;9.33;;;;;;;;5095624;27;45309;-76
2022/01/01 16:29:23;;;;;;;;;14.33;12.00;;;;;;;;5095228;27;46059;-79
2022/01/01 16:31:48;;;;;;;;;15.33;13.33;;;;;;;;5095350;27;45376;-78
2022/01/01 16:34:17;;;;;;;;;15.67;11.00;;;;;;;;5095713;27;45366;-77
2022/01/01 16:36:43;;;;;;;;;14.33;14.33;;;;;;;;5095153;27;45269;-76
2022/01/01 16:39:08;;;;;;;;;12.33;12.00;;;;;;;;5094917;27;46120;-75
2022/01/01 16:41:36;;;;;;;;;17.00;17.00;;;;;;;;5095420;27;45439;-77
2022/01/01 16:44:01;;;;;;;;;13.33;13.33;;;;;;;;5095656;27;45348;-77
2022/01/01 16:46:31;;;;;;;;;15.33;13.67;;;;;;;;5095518;27;45174;-77
2022/01/01 16:49:06;;;;;;;;;13.33;12.33;;;;;;;;5095145;27;45281;-78
2022/01/01 16:51:42;;;;;;;;;18.67;14.67;;;;;;;;5095560;27;45324;-81
2022/01/01 16:54:07;;;;;;;;;17.67;16.00;;;;;;;;5095531;27;45420;-74
2022/01/01 16:56:34;;;;;;;;;11.33;10.00;;;;;;;;5095342;27;45362;-74
2022/01/01 16:59:00;;;;;;;;;20.33;18.67;;;;;;;;5095286;27;45283;-79
2022/01/01 17:01:28;;;;;;;;;20.33;16.67;;;;;;;;5095256;27;45295;-80
2022/01/01 17:03:57;;;;;;;;;17.00;16.33;;;;;;;;5095193;27;45497;-73
2022/01/01 17:06:22;;;;;;;;;22.00;18.67;;;;;;;;5094979;27;45508;-79
2022/01/01 17:08:47;;;;;;;;;15.67;13.00;;;;;;;;5095212;27;45399;-75
2022/01/01 17:11:13;;;;;;;;;14.33;12.67;;;;;;;;5095111;27;45412;-73
2022/01/01 17:13:41;;;;;;;;;20.67;17.33;;;;;;;;5093984;27;45418;-75
2022/01/01 17:16:07;;;;;;;;;17.33;15.00;;;;;;;;5094708;27;45429;-75
2022/01/01 17:18:44;;;;;;;;;23.00;17.33;;;;;;;;5094840;27;45507;-75
2022/01/01 17:21:12;;;;;;;;;18.33;17.67;;;;;;;;5095267;27;45387;-79
2022/01/01 17:24:00;;;;;;;;;17.67;17.00;;;;;;;;5093491;27;45296;-75
2022/01/01 17:26:25;;;;;;;;;21.33;19.00;;;;;;;;5096614;27;45425;-76
2022/01/01 17:28:56;;;;;;;;;22.33;20.00;;;;;;;;5096731;27;47308;-76
2022/01/01 17:31:22;;;;;;;;;19.00;18.33;;;;;;;;5098301;27;45424;-76
2022/01/01 17:41:56;;;;;;;;;20.00;17.67;;;;;;;;5098096;27;45377;-79
2022/01/01 17:44:23;;;;;;;;;14.00;14.00;;;;;;;;5098412;27;45268;-78
2022/01/01 17:46:49;;;;;;;;;20.33;18.33;;;;;;;;5097913;27;45504;-77
2022/01/01 17:49:21;;;;;;;;;15.67;14.00;;;;;;;;5098081;27;46280;-77
2022/01/01 17:51:49;;;;;;;;;17.00;15.00;;;;;;;;5098154;27;45384;-77
2022/01/01 17:54:15;;;;;;;;;18.33;17.67;;;;;;;;5098032;27;45357;-77
2022/01/01 17:56:41;;;;;;;;;14.33;14.00;;;;;;;;5097826;27;45576;-74
2022/01/01 17:59:09;;;;;;;;;19.33;18.00;;;;;;;;5097770;27;45363;-75
2022/01/01 18:01:38;;;;;;;;;17.00;16.00;;;;;;;;5096045;27;45343;-76
2022/01/01 18:04:03;;;;;;;;;18.00;18.00;;;;;;;;5098003;27;45415;-76
2022/01/01 18:06:29;;;;;;;;;21.33;19.00;;;;;;;;5097420;27;45411;-78
2022/01/01 18:08:58;;;;;;;;;19.33;18.00;;;;;;;;5096035;27;46626;-77
2022/01/01 18:11:28;;;;;;;;;18.33;17.00;;;;;;;;5097787;27;45440;-76
2022/01/01 18:13:54;;;;;;;;;21.33;19.00;;;;;;;;5097715;27;45289;-76
2022/01/01 18:16:20;;;;;;;;;19.67;17.67;;;;;;;;5095936;27;45357;-77
2022/01/01 18:18:45;;;;;;;;;15.00;15.00;;;;;;;;5097382;27;47401;-77
2022/01/01 18:21:11;;;;;;;;;19.00;15.33;;;;;;;;5097530;27;45402;-77
2022/01/01 18:23:38;;;;;;;;;18.00;16.00;;;;;;;;5097754;27;45474;-77
2022/01/01 18:26:03;;;;;;;;;15.33;15.33;;;;;;;;5097861;27;45346;-76
2022/01/01 18:28:32;;;;;;;;;23.67;21.00;;;;;;;;5097166;27;45713;-80
2022/01/01 18:30:59;;;;;;;;;21.00;17.00;;;;;;;;5097211;27;45354;-76
2022/01/01 18:33:25;;;;;;;;;20.00;17.00;;;;;;;;5097165;27;45414;-78
2022/01/01 18:35:52;;;;;;;;;18.33;16.33;;;;;;;;5097540;27;45438;-76
2022/01/01 18:38:18;;;;;;;;;14.33;13.00;;;;;;;;5096949;27;46279;-76
2022/01/01 18:40:46;;;;;;;;;24.67;18.33;;;;;;;;5096746;27;45284;-76
2022/01/01 18:43:12;;;;;;;;;18.00;16.33;;;;;;;;5097193;27;45243;-76
2022/01/01 18:45:38;;;;;;;;;18.67;14.67;;;;;;;;5097336;27;45411;-75
2022/01/01 18:48:04;;;;;;;;;19.33;18.00;;;;;;;;5097112;27;46518;-76
2022/01/01 18:50:30;;;;;;;;;22.00;21.00;;;;;;;;5097279;27;45269;-74
2022/01/01 18:52:59;;;;;;;;;20.00;17.67;;;;;;;;5096566;27;45333;-74
2022/01/01 18:55:26;;;;;;;;;24.67;18.00;;;;;;;;5096988;27;45476;-76
2022/01/01 18:58:00;;;;;;;;;15.33;13.33;;;;;;;;5096793;27;46744;-76
2022/01/01 19:00:26;;;;;;;;;16.00;16.00;;;;;;;;5096506;27;45305;-80
2022/01/01 19:02:52;;;;;;;;;19.67;19.00;;;;;;;;5096752;27;45370;-76
2022/01/01 19:05:21;;;;;;;;;18.33;18.00;;;;;;;;5096818;27;45635;-76
2022/01/01 19:07:49;;;;;;;;;16.00;15.00;;;;;;;;5095342;27;47005;-77
2022/01/01 19:10:15;;;;;;;;;20.33;18.67;;;;;;;;5096716;27;45418;-77
2022/01/01 19:12:58;;;;;;;;;17.00;17.00;;;;;;;;5095206;27;45233;-76
2022/01/01 19:15:27;;;;;;;;;18.33;13.33;;;;;;;;5094998;27;45619;-76
2022/01/01 19:17:53;;;;;;;;;19.00;18.33;;;;;;;;5096231;27;46349;-76
2022/01/01 19:20:21;;;;;;;;;23.00;20.33;;;;;;;;5094808;27;45474;-75
2022/01/01 19:22:48;;;;;;;;;17.33;17.00;;;;;;;;5095228;27;45411;-75
2022/01/01 19:25:15;;;;;;;;;10.00;9.33;;;;;;;;5096613;27;45504;-76
2022/01/01 19:27:40;;;;;;;;;20.67;19.67;;;;;;;;5096026;27;46179;-75
2022/01/01 19:30:06;;;;;;;;;15.67;14.67;;;;;;;;5096410;27;45418;-74
2022/01/01 19:32:32;;;;;;;;;22.00;17.00;;;;;;;;5096377;27;45373;-74
2022/01/01 19:35:02;;;;;;;;;19.00;16.67;;;;;;;;5096689;27;45371;-76
2022/01/01 19:37:27;;;;;;;;;16.33;16.00;;;;;;;;5097003;27;46226;-76
2022/01/01 19:39:53;;;;;;;;;17.00;15.33;;;;;;;;5097146;27;45380;-77
2022/01/01 19:42:39;;;;;;;;;19.67;18.33;;;;;;;;5096606;27;45456;-76
2022/01/01 19:45:05;;;;;;;;;16.33;16.33;;;;;;;;5095878;27;45540;-75
2022/01/01 19:47:31;;;;;;;;;15.67;15.67;;;;;;;;5095814;27;45628;-75
2022/01/01 19:50:04;;;;;;;;;19.00;16.67;;;;;;;;5095434;27;45363;-75
2022/01/01 19:52:30;;;;;;;;;16.00;12.67;;;;;;;;5096166;27;45544;-75
2022/01/01 19:54:55;;;;;;;;;15.00;13.67;;;;;;;;5095972;27;45363;-76
2022/01/01 19:57:20;;;;;;;;;15.00;15.00;;;;;;;;5097377;27;45345;-78
2022/01/01 19:59:46;;;;;;;;;16.00;12.67;;;;;;;;5096169;27;45346;-75
2022/01/01 20:02:11;;;;;;;;;20.00;16.67;;;;;;;;5096269;27;45391;-76
2022/01/01 20:04:36;;;;;;;;;18.33;15.67;;;;;;;;5095623;27;45415;-77
2022/01/01 20:07:02;;;;;;;;;13.67;13.67;;;;;;;;5095522;27;46154;-77
2022/01/01 20:09:27;;;;;;;;;17.67;16.33;;;;;;;;5096016;27;45356;-76
2022/01/01 20:11:53;;;;;;;;;13.67;13.33;;;;;;;;5095799;27;45410;-76
2022/01/01 20:14:18;;;;;;;;;13.67;12.00;;;;;;;;5095701;27;45382;-77
2022/01/01 20:16:44;;;;;;;;;16.67;14.33;;;;;;;;5095909;27;46387;-77
2022/01/01 20:19:10;;;;;;;;;14.67;14.67;;;;;;;;5095506;27;45339;-77
2022/01/01 20:21:35;;;;;;;;;16.33;15.33;;;;;;;;5095980;27;45454;-75
2022/01/01 20:24:00;;;;;;;;;15.33;12.33;;;;;;;;5095805;27;45142;-76
2022/01/01 20:26:29;;;;;;;;;15.00;12.67;;;;;;;;5095321;27;45292;-76
2022/01/01 20:28:55;;;;;;;;;19.33;15.67;;;;;;;;5094151;27;46142;-75
2022/01/01 20:31:20;;;;;;;;;15.67;15.00;;;;;;;;5095460;27;45370;-76
2022/01/01 20:33:45;;;;;;;;;11.67;7.67;;;;;;;;5095358;27;45386;-76
2022/01/01 20:36:10;;;;;;;;;16.00;13.67;;;;;;;;5095692;27;46600;-76
2022/01/01 20:38:36;;;;;;;;;9.00;8.67;;;;;;;;5095486;27;45419;-76
2022/01/01 20:41:01;;;;;;;;;19.33;15.67;;;;;;;;5095425;27;45348;-75
2022/01/01 20:43:27;;;;;;;;;16.33;14.67;;;;;;;;5095756;27;45207;-77
2022/01/01 20:45:52;;;;;;;;;19.00;18.00;;;;;;;;5095368;27;45717;-76
2022/01/01 20:48:17;;;;;;;;;17.00;16.33;;;;;;;;5095768;27;45315;-75
2022/01/01 20:50:44;;;;;;;;;19.33;12.67;;;;;;;;5095497;27;45224;-78
2022/01/01 20:53:09;;;;;;;;;13.33;13.33;;;;;;;;5095668;27;45401;-76
2022/01/01 20:55:34;;;;;;;;;14.00;13.00;;;;;;;;5096012;27;45399;-77
2022/01/01 20:58:00;;;;;;;;;13.33;13.00;;;;;;;;5095652;27;45289;-76
2022/01/01 21:00:25;;;;;;;;;14.67;12.33;;;;;;;;5095822;27;45405;-76
2022/01/01 21:02:56;;;;;;;;;13.33;12.00;;;;;;;;5100162;27;45326;-77
2022/01/01 21:05:21;;;;;;;;;14.33;14.33;;;;;;;;5099904;27;45541;-78
2022/01/01 21:07:48;;;;;;;;;17.00;15.33;;;;;;;;5099959;27;45300;-77
2022/01/01 21:10:14;;;;;;;;;14.33;12.67;;;;;;;;5100115;27;45442;-77
2022/01/01 21:12:41;;;;;;;;;16.33;13.67;;;;;;;;5099694;27;45447;-79
2022/01/01 21:15:07;;;;;;;;;13.00;13.00;;;;;;;;5099029;27;46644;-77
2022/01/01 21:17:32;;;;;;;;;15.00;12.33;;;;;;;;5098911;27;45449;-79
2022/01/01 21:20:00;;;;;;;;;16.00;14.67;;;;;;;;5098686;27;45486;-79
2022/01/01 21:22:25;;;;;;;;;12.00;11.00;;;;;;;;5098439;27;45257;-79
2022/01/01 21:24:50;;;;;;;;;12.00;11.67;;;;;;;;5098828;27;45375;-78
2022/01/01 21:27:16;;;;;;;;;19.33;12.00;;;;;;;;5098797;27;45386;-78
2022/01/01 21:29:42;;;;;;;;;17.33;16.33;;;;;;;;5098610;27;45414;-77
2022/01/01 21:32:08;;;;;;;;;16.00;16.00;;;;;;;;5098615;27;45186;-76
2022/01/01 21:34:34;;;;;;;;;17.67;13.33;;;;;;;;5098480;27;45401;-77
2022/01/01 21:36:59;;;;;;;;;18.33;16.67;;;;;;;;5098503;27;45573;-77
2022/01/01 21:39:26;;;;;;;;;10.67;7.67;;;;;;;;5098189;27;45444;-76
2022/01/01 21:41:52;;;;;;;;;18.00;14.33;;;;;;;;5098033;27;45553;-77
2022/01/01 21:44:17;;;;;;;;;11.67;11.00;;;;;;;;5098078;27;46114;-75
2022/01/01 21:46:43;;;;;;;;;17.00;14.00;;;;;;;;5096974;27;45777;-75
2022/01/01 21:49:08;;;;;;;;;11.67;11.00;;;;;;;;5098517;27;45270;-75
2022/01/01 21:51:33;;;;;;;;;14.00;14.00;;;;;;;;5098163;27;45459;-77
2022/01/01 21:53:58;;;;;;;;;13.00;12.67;;;;;;;;5098234;27;46066;-76
2022/01/01 21:56:24;;;;;;;;;13.67;12.67;;;;;;;;5098240;27;45266;-76
2022/01/01 21:58:49;;;;;;;;;22.67;16.00;;;;;;;;5098034;27;45352;-75
2022/01/01 22:01:15;;;;;;;;;12.33;11.00;;;;;;;;5097798;27;45573;-76
2022/01/01 22:03:40;;;;;;;;;15.67;14.00;;;;;;;;5098099;27;45452;-76
2022/01/01 22:06:05;;;;;;;;;16.67;13.67;;;;;;;;5098742;27;45694;-77
2022/01/01 22:08:30;;;;;;;;;7.00;7.00;;;;;;;;5098762;27;45421;-76
2022/01/01 22:10:56;;;;;;;;;13.33;11.67;;;;;;;;5098332;27;45322;-77
2022/01/01 22:13:21;;;;;;;;;11.67;11.67;;;;;;;;5097647;27;45435;-77
2022/01/01 22:15:46;;;;;;;;;12.67;10.33;;;;;;;;5098129;27;45386;-79
2022/01/01 22:18:11;;;;;;;;;14.33;11.33;;;;;;;;5098097;27;45208;-80
2022/01/01 22:20:37;;;;;;;;;12.67;12.00;;;;;;;;5096475;27;45391;-78
2022/01/01 22:23:02;;;;;;;;;15.00;14.33;;;;;;;;5097613;27;46533;-78
2022/01/01 22:25:27;;;;;;;;;15.33;13.67;;;;;;;;5097627;27;45324;-80
2022/01/01 22:27:53;;;;;;;;;14.33;12.33;;;;;;;;5098028;27;45200;-81
2022/01/01 22:30:19;;;;;;;;;11.00;9.00;;;;;;;;5098246;27;45364;-81
2022/01/01 22:32:44;;;;;;;;;14.33;14.33;;;;;;;;5097569;27;45451;-77
2022/01/01 22:35:10;;;;;;;;;10.67;10.33;;;;;;;;5097580;27;45346;-79
2022/01/01 22:37:35;;;;;;;;;15.33;12.33;;;;;;;;5097897;27;45828;-80
2022/01/01 22:40:01;;;;;;;;;15.67;13.67;;;;;;;;5098049;27;45166;-79
2022/01/01 22:42:26;;;;;;;;;16.67;14.67;;;;;;;;5098882;27;45232;-79
2022/01/01 22:44:51;;;;;;;;;16.00;11.67;;;;;;;;5098698;27;45670;-79
2022/01/01 22:47:18;;;;;;;;;14.00;10.67;;;;;;;;5097991;27;45373;-78
2022/01/01 22:49:44;;;;;;;;;16.00;14.00;;;;;;;;5097429;27;45394;-79
2022/01/01 22:52:09;;;;;;;;;16.33;14.00;;;;;;;;5097014;27;46101;-76
2022/01/01 22:54:34;;;;;;;;;14.67;14.67;;;;;;;;5097355;27;45323;-76
2022/01/01 22:56:59;;;;;;;;;12.00;12.00;;;;;;;;5097340;27;45406;-76
2022/01/01 22:59:25;;;;;;;;;11.00;11.00;;;;;;;;5097140;27;45421;-76
2022/01/01 23:01:50;;;;;;;;;11.33;11.33;;;;;;;;5097058;27;45387;-77
2022/01/01 23:04:15;;;;;;;;;14.00;12.67;;;;;;;;5097174;27;45317;-77
2022/01/01 23:06:41;;;;;;;;;17.00;13.33;;;;;;;;5096993;27;45241;-76
2022/01/01 23:09:06;;;;;;;;;14.33;10.33;;;;;;;;5096959;27;45309;-76
2022/01/01 23:11:31;;;;;;;;;10.33;10.33;;;;;;;;5097096;27;46543;-78
2022/01/01 23:13:56;;;;;;;;;14.00;12.33;;;;;;;;5097061;27;45267;-78
2022/01/01 23:16:29;;;;;;;;;13.67;13.67;;;;;;;;5097072;27;45384;-79
2022/01/01 23:18:57;;;;;;;;;15.33;11.67;;;;;;;;5096909;27;45344;-78
2022/01/01 23:21:24;;;;;;;;;10.00;7.00;;;;;;;;5096203;27;47014;-77
2022/01/01 23:23:49;;;;;;;;;11.33;9.67;;;;;;;;5095777;27;45183;-76
2022/01/01 23:26:22;;;;;;;;;10.67;8.00;;;;;;;;5096826;27;45405;-76
2022/01/01 23:28:51;;;;;;;;;13.00;11.33;;;;;;;;5096724;27;45390;-76
2022/01/01 23:31:21;;;;;;;;;11.67;10.00;;;;;;;;5096479;27;45493;-77
2022/01/01 23:33:48;;;;;;;;;9.00;9.00;;;;;;;;5096269;27;45335;-75
2022/01/01 23:36:14;;;;;;;;;10.67;10.00;;;;;;;;5096354;27;45482;-75
2022/01/01 23:38:39;;;;;;;;;11.67;10.00;;;;;;;;5096368;27;45380;-76
2022/01/01 23:41:05;;;;;;;;;11.67;10.00;;;;;;;;5095975;27;45492;-74
2022/01/01 23:43:30;;;;;;;;;9.33;9.33;;;;;;;;5096065;27;45328;-74
2022/01/01 23:46:00;;;;;;;;;14.67;11.67;;;;;;;;5094943;27;45356;-76
2022/01/01 23:48:25;;;;;;;;;11.00;9.67;;;;;;;;5096430;27;45419;-75
2022/01/01 23:50:52;;;;;;;;;13.00;11.00;;;;;;;;5096252;27;45716;-76
2022/01/01 23:53:26;;;;;;;;;13.67;10.33;;;;;;;;5094525;27;45356;-75
2022/01/01 23:55:54;;;;;;;;;10.00;10.00;;;;;;;;5096240;27;45430;-75
2022/01/01 23:58:24;;;;;;;;;14.00;12.00;;;;;;;;5096461;27;45200;-75
